Time;durP1;ratioP1;P1;durP2;ratioP2;P2;SDS_P1;SDS_P2;PMS_P1;PMS_P2;Temp;Humidity;BMP_temperature;BMP_pressure;BME280_temperature;BME280_humidity;BME280_pressure;Samples;Min_cycle;Max_cycle;Signal;HPM_P1;HPM_P2
2022/10/07 00:04:45;;;;;;;;;;;;;;;20.71;49.42;96772.31;10530896;28;2060;-47
2022/10/07 00:09:46;;;;;;;;;;;;;;;20.68;49.49;96767.53;10529210;28;2058;-46
2022/10/07 00:14:46;;;;;;;;;;;;;;;20.67;49.60;96760.69;10523912;28;2111;-48
2022/10/07 00:19:46;;;;;;;;;;;;;;;20.68;49.37;96752.50;10513197;28;2089;-50
2022/10/07 00:24:47;;;;;;;;;;;;;;;20.67;49.75;96755.41;10523093;28;2109;-48
2022/10/07 00:29:57;;;;;;;;;;;;;;;20.68;49.66;96746.44;10530455;28;2079;-47
2022/10/07 00:34:57;;;;;;;;;;;;;;;20.67;49.59;96743.00;10522302;28;1989;-45
2022/10/07 00:39:58;;;;;;;;;;;;;;;20.67;49.60;96735.09;10518789;28;2054;-51
2022/10/07 00:44:58;;;;;;;;;;;;;;;20.67;49.34;96735.09;10542102;28;2066;-49
2022/10/07 00:50:09;;;;;;;;;;;;;;;20.66;49.54;96723.00;10542177;28;2033;-49
2022/10/07 00:55:11;;;;;;;;;;;;;;;20.68;49.45;96714.81;10530696;28;1914;-46
2022/10/07 01:00:11;;;;;;;;;;;;;;;20.66;49.50;96706.38;10544839;28;2028;-47
2022/10/07 01:05:13;;;;;;;;;;;;;;;20.65;49.30;96700.31;10517209;28;1982;-47
2022/10/07 01:10:14;;;;;;;;;;;;;;;20.66;49.50;96712.44;10519591;28;2084;-48
2022/10/07 01:15:37;;;;;;;;;;;;;;;20.64;49.44;96696.09;10540190;28;1997;-46
2022/10/07 01:20:52;;;;;;;;;;;;;;;20.65;49.29;96692.41;10516526;28;2090;-46
2022/10/07 01:26:11;;;;;;;;;;;;;;;20.65;49.37;96695.03;10534050;28;2011;-46
2022/10/07 01:31:12;;;;;;;;;;;;;;;20.65;49.32;96684.50;10520592;28;2045;-47
2022/10/07 01:36:14;;;;;;;;;;;;;;;20.64;49.29;96682.13;10527671;28;2157;-45
2022/10/07 01:41:15;;;;;;;;;;;;;;;20.65;49.24;96678.47;10518531;28;2091;-50
2022/10/07 01:46:17;;;;;;;;;;;;;;;20.64;49.12;96666.31;10527377;28;2085;-45
2022/10/07 01:51:18;;;;;;;;;;;;;;;20.63;49.45;96664.75;10516528;28;1970;-47
2022/10/07 01:56:50;;;;;;;;;;;;;;;20.64;49.56;96663.69;10536285;28;2002;-50
2022/10/07 02:01:57;;;;;;;;;;;;;;;20.63;49.38;96660.25;10487773;28;2158;-45
2022/10/07 02:07:00;;;;;;;;;;;;;;;20.62;49.37;96649.97;10505240;28;2181;-50
2022/10/07 02:12:06;;;;;;;;;;;;;;;20.62;49.48;96649.97;10519166;28;2096;-45
2022/10/07 02:17:09;;;;;;;;;;;;;;;20.63;49.48;96648.94;10539135;28;2097;-45
2022/10/07 02:22:09;;;;;;;;;;;;;;;20.61;49.47;96645.78;10525913;28;2048;-46
2022/10/07 02:27:10;;;;;;;;;;;;;;;20.62;49.42;96647.34;10521159;28;1891;-48
2022/10/07 02:32:12;;;;;;;;;;;;;;;20.62;49.32;96642.06;10521564;28;1992;-45
2022/10/07 02:37:13;;;;;;;;;;;;;;;20.62;49.49;96647.34;10535016;28;2144;-47
2022/10/07 02:42:28;;;;;;;;;;;;;;;20.61;49.33;96629.97;10524483;28;2016;-46
2022/10/07 02:47:31;;;;;;;;;;;;;;;20.61;48.92;96619.44;10519610;28;1995;-49
2022/10/07 02:52:31;;;;;;;;;;;;;;;20.61;49.11;96625.47;10522822;28;2190;-46
2022/10/07 02:57:39;;;;;;;;;;;;;;;20.61;49.24;96629.97;10502418;28;1835;-45
2022/10/07 03:02:45;;;;;;;;;;;;;;;20.60;49.02;96617.81;10524643;28;2075;-46
2022/10/07 03:07:45;;;;;;;;;;;;;;;20.61;49.10;96617.56;10539102;28;2027;-46
2022/10/07 03:12:46;;;;;;;;;;;;;;;20.61;49.27;96614.94;10534377;28;2042;-47
2022/10/07 03:17:46;;;;;;;;;;;;;;;20.61;49.10;96624.69;10518456;28;1975;-47
2022/10/07 03:22:46;;;;;;;;;;;;;;;20.59;49.33;96611.75;10517007;28;2039;-48
2022/10/07 03:27:47;;;;;;;;;;;;;;;20.60;48.89;96608.09;10520439;28;2074;-48
2022/10/07 03:32:48;;;;;;;;;;;;;;;20.58;49.03;96607.53;10513354;28;2109;-47
2022/10/07 03:37:48;;;;;;;;;;;;;;;20.60;49.05;96602.03;10518116;28;2063;-48
2022/10/07 03:42:49;;;;;;;;;;;;;;;20.60;49.16;96600.19;10523127;28;1994;-47
2022/10/07 03:47:49;;;;;;;;;;;;;;;20.59;49.19;96598.59;10518156;28;2059;-49
2022/10/07 03:52:50;;;;;;;;;;;;;;;20.59;49.10;96593.31;10502639;28;2058;-46
2022/10/07 03:57:52;;;;;;;;;;;;;;;20.59;48.77;96601.22;10512170;28;1966;-46
2022/10/07 04:02:52;;;;;;;;;;;;;;;20.59;48.93;96600.41;10517613;28;2114;-46
2022/10/07 04:07:53;;;;;;;;;;;;;;;20.60;48.92;96586.22;10516945;28;2078;-46
2022/10/07 04:12:53;;;;;;;;;;;;;;;20.60;48.97;96584.38;10523658;28;1963;-45
2022/10/07 04:17:57;;;;;;;;;;;;;;;20.59;49.06;96584.59;10523355;28;2030;-46
2022/10/07 04:22:57;;;;;;;;;;;;;;;20.60;49.02;96579.13;10502159;28;2074;-46
2022/10/07 04:27:58;;;;;;;;;;;;;;;20.57;48.99;96576.97;10517427;28;2056;-45
2022/10/07 04:32:59;;;;;;;;;;;;;;;20.58;48.84;96567.22;10515183;28;2120;-47
2022/10/07 04:38:00;;;;;;;;;;;;;;;20.58;49.00;96559.34;10512808;28;2050;-46
2022/10/07 04:43:19;;;;;;;;;;;;;;;20.58;48.94;96562.75;10502310;28;2081;-49
2022/10/07 04:48:20;;;;;;;;;;;;;;;20.59;48.98;96558.28;10532394;28;1911;-48
2022/10/07 04:53:20;;;;;;;;;;;;;;;20.58;48.94;96556.69;10521836;28;1894;-45
2022/10/07 04:58:21;;;;;;;;;;;;;;;20.59;48.90;96556.44;10531982;28;2004;-46
2022/10/07 05:03:22;;;;;;;;;;;;;;;20.58;48.85;96546.97;10512376;28;2086;-45
2022/10/07 05:08:25;;;;;;;;;;;;;;;20.58;48.69;96561.97;10528230;28;1827;-47
2022/10/07 05:13:25;;;;;;;;;;;;;;;20.58;48.82;96565.41;10529109;28;2047;-45
2022/10/07 05:18:26;;;;;;;;;;;;;;;20.58;48.88;96554.88;10525224;28;2062;-47
2022/10/07 05:23:27;;;;;;;;;;;;;;;20.59;48.77;96558.28;10501420;28;2225;-45
2022/10/07 05:28:27;;;;;;;;;;;;;;;20.59;48.56;96553.00;10524369;28;2171;-46
2022/10/07 05:33:30;;;;;;;;;;;;;;;20.60;48.73;96558.03;10541601;27;1915;-47
2022/10/07 05:38:30;;;;;;;;;;;;;;;20.61;48.51;96550.94;10523818;28;2028;-49
2022/10/07 05:43:32;;;;;;;;;;;;;;;20.59;48.44;96545.91;10519107;28;2036;-46
2022/10/07 05:48:32;;;;;;;;;;;;;;;20.59;48.60;96545.91;10516026;28;2052;-50
2022/10/07 05:53:33;;;;;;;;;;;;;;;20.58;48.47;96552.22;10512746;28;2040;-46
2022/10/07 05:58:37;;;;;;;;;;;;;;;20.57;48.70;96544.56;10544351;28;2111;-47
2022/10/07 06:03:38;;;;;;;;;;;;;;;20.57;48.54;96547.19;10533148;28;2078;-46
2022/10/07 06:08:38;;;;;;;;;;;;;;;20.58;48.46;96559.34;10519921;28;2039;-47
2022/10/07 06:13:38;;;;;;;;;;;;;;;20.56;48.65;96553.53;10521540;28;1956;-51
2022/10/07 06:18:39;;;;;;;;;;;;;;;20.55;48.68;96563.25;10540052;28;2130;-44
2022/10/07 06:23:39;;;;;;;;;;;;;;;20.56;48.49;96567.50;10522590;28;2555;-49
2022/10/07 06:28:39;;;;;;;;;;;;;;;20.54;48.63;96561.69;10516356;28;1923;-45
2022/10/07 06:33:43;;;;;;;;;;;;;;;20.54;48.41;96560.88;10518407;28;1977;-48
2022/10/07 06:38:44;;;;;;;;;;;;;;;20.54;48.40;96558.25;10537967;28;2054;-47
2022/10/07 06:43:44;;;;;;;;;;;;;;;20.53;48.48;96557.44;10491919;28;2474;-47
2022/10/07 06:48:45;;;;;;;;;;;;;;;20.53;48.66;96564.56;10507097;28;1749;-46
2022/10/07 06:53:49;;;;;;;;;;;;;;;20.52;48.59;96566.41;10522818;28;2308;-45
2022/10/07 06:58:49;;;;;;;;;;;;;;;20.53;48.42;96565.34;10539998;27;1805;-45
2022/10/07 07:03:49;;;;;;;;;;;;;;;20.53;48.49;96564.56;10517397;28;2015;-46
2022/10/07 07:08:49;;;;;;;;;;;;;;;20.50;48.61;96557.97;10515659;28;2313;-47
2022/10/07 07:13:50;;;;;;;;;;;;;;;20.49;48.52;96561.66;10537850;27;1938;-47
2022/10/07 07:18:51;;;;;;;;;;;;;;;20.49;48.69;96561.66;10516009;28;1779;-48
2022/10/07 07:23:56;;;;;;;;;;;;;;;20.49;48.66;96563.47;10513414;28;2296;-46
2022/10/07 07:28:57;;;;;;;;;;;;;;;20.50;48.50;96560.59;10524755;28;2321;-49
2022/10/07 07:34:00;;;;;;;;;;;;;;;20.50;48.66;96562.44;10519663;28;2314;-47
2022/10/07 07:39:02;;;;;;;;;;;;;;;20.50;48.44;96555.34;10517036;28;2386;-47
2022/10/07 07:44:03;;;;;;;;;;;;;;;20.49;48.53;96553.75;10521327;28;2293;-46
2022/10/07 07:49:04;;;;;;;;;;;;;;;20.49;48.68;96548.47;10517957;28;1839;-46
2022/10/07 07:54:05;;;;;;;;;;;;;;;20.49;48.51;96551.09;10513990;28;2433;-46
2022/10/07 07:59:06;;;;;;;;;;;;;;;20.50;48.53;96544.00;10517018;28;2326;-48
2022/10/07 08:04:08;;;;;;;;;;;;;;;20.49;48.55;96545.84;10520935;28;1962;-44
2022/10/07 08:09:08;;;;;;;;;;;;;;;20.49;48.75;96542.41;10538616;28;2364;-46
2022/10/07 08:14:12;;;;;;;;;;;;;;;20.48;48.74;96541.63;10508236;28;2282;-46
2022/10/07 08:19:14;;;;;;;;;;;;;;;20.48;48.78;96546.91;10514743;28;2327;-46
2022/10/07 08:24:14;;;;;;;;;;;;;;;20.48;48.73;96546.91;10504120;28;1744;-47
2022/10/07 08:29:15;;;;;;;;;;;;;;;20.47;48.74;96540.03;10528320;28;2376;-48
2022/10/07 08:34:16;;;;;;;;;;;;;;;20.47;48.67;96532.13;10541253;28;2367;-45
2022/10/07 08:39:16;;;;;;;;;;;;;;;20.48;48.79;96527.66;10524161;28;2198;-46
2022/10/07 08:44:17;;;;;;;;;;;;;;;20.47;48.72;96526.88;10523223;28;1943;-45
2022/10/07 08:49:19;;;;;;;;;;;;;;;20.48;48.77;96515.28;10542289;28;2390;-51
2022/10/07 08:54:21;;;;;;;;;;;;;;;20.48;48.83;96520.56;10535330;27;2306;-48
2022/10/07 08:59:23;;;;;;;;;;;;;;;20.48;48.71;96514.50;10536004;28;2278;-47
2022/10/07 09:04:23;;;;;;;;;;;;;;;20.48;48.81;96514.50;10526311;28;2264;-46
2022/10/07 09:09:26;;;;;;;;;;;;;;;20.46;48.69;96498.16;10527372;28;2614;-44
2022/10/07 09:14:27;;;;;;;;;;;;;;;20.48;48.64;96504.75;10536705;28;2564;-45
2022/10/07 09:19:29;;;;;;;;;;;;;;;20.48;48.97;96499.50;10504316;28;2271;-47
2022/10/07 09:24:29;;;;;;;;;;;;;;;20.48;48.62;96501.31;10542173;28;1971;-48
2022/10/07 09:29:30;;;;;;;;;;;;;;;20.49;48.82;96489.72;10513167;28;1946;-47
2022/10/07 09:34:30;;;;;;;;;;;;;;;20.50;48.76;96484.22;10527186;28;2032;-46
2022/10/07 09:39:30;;;;;;;;;;;;;;;20.51;48.52;96477.91;10526836;28;2421;-46
2022/10/07 09:44:30;;;;;;;;;;;;;;;20.52;48.78;96483.97;10532509;27;2313;-46
2022/10/07 09:49:38;;;;;;;;;;;;;;;20.51;48.77;96485.00;10541450;28;1793;-47
2022/10/07 09:54:38;;;;;;;;;;;;;;;20.51;48.63;96487.63;10528414;28;2343;-49
2022/10/07 09:59:39;;;;;;;;;;;;;;;20.53;48.60;96475.81;10527402;28;2299;-46
2022/10/07 10:04:49;;;;;;;;;;;;;;;20.53;48.65;96467.91;10525966;28;1907;-45
2022/10/07 10:09:56;;;;;;;;;;;;;;;20.57;48.86;96471.63;10534550;28;2331;-46
2022/10/07 10:14:57;;;;;;;;;;;;;;;20.55;48.72;96467.63;10519108;28;2408;-46
2022/10/07 10:20:18;;;;;;;;;;;;;;;20.58;48.81;96465.31;10524196;28;1969;-47
2022/10/07 10:30:55;;;;;;;;;;;;;;;20.57;48.62;96458.44;10535165;28;2316;-44
2022/10/07 10:35:58;;;;;;;;;;;;;;;20.55;48.88;96452.63;10509946;28;1913;-47
2022/10/07 10:41:01;;;;;;;;;;;;;;;20.59;48.82;96440.53;10504628;28;1886;-46
2022/10/07 10:46:04;;;;;;;;;;;;;;;20.58;49.04;96438.97;10523919;28;2272;-49
2022/10/07 10:51:12;;;;;;;;;;;;;;;20.59;48.71;96437.91;10513241;28;2427;-46
2022/10/07 10:56:21;;;;;;;;;;;;;;;20.61;48.87;96425.28;10514799;28;2329;-46
2022/10/07 11:01:26;;;;;;;;;;;;;;;20.66;48.73;96413.97;10523431;28;2330;-46
2022/10/07 11:06:27;;;;;;;;;;;;;;;20.64;48.86;96411.59;10527446;28;1941;-44
2022/10/07 11:11:28;;;;;;;;;;;;;;;20.66;48.76;96406.88;10522195;28;2323;-46
2022/10/07 11:16:35;;;;;;;;;;;;;;;20.66;48.81;96398.97;10519537;28;2285;-45
2022/10/07 11:21:36;;;;;;;;;;;;;;;20.68;48.77;96394.22;10526795;28;2535;-43
2022/10/07 11:26:38;;;;;;;;;;;;;;;20.69;48.76;96385.25;10519690;28;1903;-47
2022/10/07 11:31:41;;;;;;;;;;;;;;;20.69;49.08;96380.00;10535967;28;2337;-46
2022/10/07 11:36:55;;;;;;;;;;;;;;;20.69;48.90;96368.69;10528789;28;2317;-46
2022/10/07 11:41:55;;;;;;;;;;;;;;;20.69;49.10;96369.44;10529503;28;1846;-48
2022/10/07 11:46:56;;;;;;;;;;;;;;;20.71;48.90;96356.81;10516243;28;2318;-49
2022/10/07 11:51:56;;;;;;;;;;;;;;;20.71;48.99;96346.28;10532270;28;2377;-46
2022/10/07 11:56:59;;;;;;;;;;;;;;;20.73;49.03;96344.16;10518814;28;2319;-47
2022/10/07 12:01:59;;;;;;;;;;;;;;;20.74;49.10;96329.97;10513270;28;1997;-46
2022/10/07 12:07:18;;;;;;;;;;;;;;;20.74;49.11;96324.69;10520163;28;1918;-52
2022/10/07 12:12:22;;;;;;;;;;;;;;;20.75;49.01;96326.25;10511115;28;2237;-45
2022/10/07 12:17:22;;;;;;;;;;;;;;;20.73;49.30;96317.81;10520077;28;1954;-47
2022/10/07 12:22:23;;;;;;;;;;;;;;;20.73;49.30;96312.56;10529785;28;2282;-48
2022/10/07 12:27:23;;;;;;;;;;;;;;;20.77;49.25;96297.81;10518663;28;2071;-45
2022/10/07 12:32:42;;;;;;;;;;;;;;;20.78;49.34;96294.13;10534328;28;2400;-48
2022/10/07 12:37:44;;;;;;;;;;;;;;;20.80;48.99;96291.22;10520348;28;1841;-46
2022/10/07 12:42:48;;;;;;;;;;;;;;;20.81;49.18;96285.69;10510910;28;2433;-45
2022/10/07 12:47:49;;;;;;;;;;;;;;;20.78;49.14;96275.69;10538478;28;1930;-46
2022/10/07 12:52:51;;;;;;;;;;;;;;;20.78;49.08;96273.06;10519979;28;2624;-45
2022/10/07 12:57:52;;;;;;;;;;;;;;;20.82;49.10;96263.56;10535697;28;1742;-45
2022/10/07 13:02:52;;;;;;;;;;;;;;;20.85;49.13;96262.25;10534647;28;1888;-45
2022/10/07 13:07:56;;;;;;;;;;;;;;;20.89;49.00;96266.75;10532853;28;2383;-47
2022/10/07 13:13:03;;;;;;;;;;;;;;;20.90;49.00;96252.50;10527084;28;2270;-47
2022/10/07 13:18:05;;;;;;;;;;;;;;;20.91;49.05;96258.56;10547582;28;1801;-45
2022/10/07 13:23:10;;;;;;;;;;;;;;;20.90;49.01;96255.16;10532790;28;2278;-46
2022/10/07 13:28:11;;;;;;;;;;;;;;;20.90;49.27;96244.59;10540182;28;2261;-48
2022/10/07 13:33:29;;;;;;;;;;;;;;;20.93;49.00;96240.66;10526572;28;2676;-46
2022/10/07 13:38:29;;;;;;;;;;;;;;;20.96;49.01;96243.53;10526607;28;2326;-47
2022/10/07 13:43:30;;;;;;;;;;;;;;;20.98;49.00;96236.16;10523681;28;2283;-48
2022/10/07 13:48:34;;;;;;;;;;;;;;;20.95;49.01;96226.16;10534035;28;2084;-46
2022/10/07 13:53:34;;;;;;;;;;;;;;;20.93;49.21;96224.84;10534140;28;1990;-48
2022/10/07 13:58:35;;;;;;;;;;;;;;;20.92;49.27;96223.25;10533017;28;1765;-45
2022/10/07 14:03:55;;;;;;;;;;;;;;;20.94;49.26;96224.56;10525583;28;2262;-46
2022/10/07 14:08:56;;;;;;;;;;;;;;;20.92;49.29;96224.03;10516894;28;2583;-46
2022/10/07 14:13:58;;;;;;;;;;;;;;;20.91;49.36;96216.41;10519716;28;2420;-46
2022/10/07 14:18:58;;;;;;;;;;;;;;;20.90;49.62;96217.44;10535746;28;1910;-46
2022/10/07 14:24:05;;;;;;;;;;;;;;;20.88;49.44;96209.81;10504610;28;2404;-46
2022/10/07 14:29:21;;;;;;;;;;;;;;;20.87;49.50;96210.88;10539447;28;2340;-45
2022/10/07 14:39:41;;;;;;;;;;;;;;;20.85;49.68;96206.94;10524296;28;2301;-46
2022/10/07 14:44:44;;;;;;;;;;;;;;;20.84;49.42;96195.59;10513222;28;2339;-45
2022/10/07 14:49:44;;;;;;;;;;;;;;;20.85;49.47;96186.66;10523654;28;2283;-44
2022/10/07 14:54:45;;;;;;;;;;;;;;;20.83;49.56;96186.13;10537437;28;2443;-45
2022/10/07 14:59:48;;;;;;;;;;;;;;;20.84;49.70;96185.06;10535286;28;2353;-45
2022/10/07 15:04:49;;;;;;;;;;;;;;;20.83;49.52;96182.69;10514935;28;2439;-49
2022/10/07 15:09:49;;;;;;;;;;;;;;;20.83;49.81;96172.94;10506213;28;2251;-45
2022/10/07 15:14:49;;;;;;;;;;;;;;;20.83;49.46;96172.94;10523345;28;2267;-46
2022/10/07 15:19:50;;;;;;;;;;;;;;;20.81;49.62;96161.84;10521767;28;2251;-46
2022/10/07 15:24:50;;;;;;;;;;;;;;;20.80;49.74;96170.03;10533347;28;2622;-49
2022/10/07 15:29:53;;;;;;;;;;;;;;;20.80;49.55;96162.91;10506873;28;2351;-49
2022/10/07 15:34:54;;;;;;;;;;;;;;;20.78;49.72;96157.13;10514484;28;2365;-47
2022/10/07 15:39:55;;;;;;;;;;;;;;;20.78;49.51;96156.34;10521275;28;1892;-46
2022/10/07 15:44:55;;;;;;;;;;;;;;;20.78;49.51;96154.50;10513333;28;2298;-50
2022/10/07 15:49:55;;;;;;;;;;;;;;;20.77;49.81;96150.25;10511394;28;2248;-48
2022/10/07 15:54:56;;;;;;;;;;;;;;;20.76;49.67;96158.44;10519484;28;1969;-48
2022/10/07 15:59:56;;;;;;;;;;;;;;;20.74;49.63;96150.81;10525952;28;2495;-46
2022/10/07 16:04:57;;;;;;;;;;;;;;;20.74;49.74;96152.66;10510999;28;2720;-46
2022/10/07 16:09:57;;;;;;;;;;;;;;;20.73;49.19;96149.22;10526365;28;2325;-44
2022/10/07 16:14:57;;;;;;;;;;;;;;;20.73;49.46;96148.44;10520495;28;1961;-47
2022/10/07 16:19:58;;;;;;;;;;;;;;;20.72;49.46;96147.66;10518995;28;2362;-44
2022/10/07 16:24:58;;;;;;;;;;;;;;;20.71;49.39;96145.28;10517291;28;2404;-45
2022/10/07 16:35:37;;;;;;;;;;;;;;;20.71;49.35;96146.06;10396026;28;2360;-44
2022/10/07 16:40:38;;;;;;;;;;;;;;;20.70;49.63;96159.50;10492050;28;2289;-49
2022/10/07 16:45:38;;;;;;;;;;;;;;;20.69;49.28;96158.69;10524182;28;2348;-47
2022/10/07 16:50:39;;;;;;;;;;;;;;;20.70;49.09;96149.75;10529179;28;1887;-45
2022/10/07 16:55:39;;;;;;;;;;;;;;;20.69;49.42;96150.81;10537024;28;2284;-45
2022/10/07 17:00:40;;;;;;;;;;;;;;;20.67;49.39;96155.53;10522388;28;2337;-45
2022/10/07 17:05:40;;;;;;;;;;;;;;;20.68;49.21;96146.59;10515488;28;2362;-46
2022/10/07 17:10:41;;;;;;;;;;;;;;;20.68;49.07;96140.53;10527157;28;2080;-45
2022/10/07 17:15:41;;;;;;;;;;;;;;;20.67;49.26;96145.00;10527375;28;2369;-45
2022/10/07 17:20:50;;;;;;;;;;;;;;;20.67;49.21;96149.50;10521974;28;2279;-46
2022/10/07 17:25:52;;;;;;;;;;;;;;;20.67;49.27;96149.50;10510973;28;2420;-46
2022/10/07 17:30:52;;;;;;;;;;;;;;;20.66;49.35;96143.44;10527487;28;2423;-46
2022/10/07 17:35:58;;;;;;;;;;;;;;;20.65;49.43;96149.75;10535790;28;1953;-44
2022/10/07 17:40:59;;;;;;;;;;;;;;;20.66;49.28;96146.06;10520908;28;2323;-45
2022/10/07 17:46:00;;;;;;;;;;;;;;;20.65;49.01;96147.13;10521114;28;1931;-44
2022/10/07 17:51:01;;;;;;;;;;;;;;;20.65;49.37;96141.06;10518247;28;2385;-48
2022/10/07 17:56:02;;;;;;;;;;;;;;;20.65;49.10;96147.13;10525569;28;2388;-45
2022/10/07 18:01:07;;;;;;;;;;;;;;;20.64;49.00;96142.91;10504626;28;2281;-45
2022/10/07 18:06:08;;;;;;;;;;;;;;;20.64;49.27;96134.22;10525115;28;2214;-46
2022/10/07 18:11:08;;;;;;;;;;;;;;;20.64;49.23;96140.28;10526219;28;2273;-47
2022/10/07 18:16:12;;;;;;;;;;;;;;;20.64;49.27;96139.47;10542974;28;2399;-44
2022/10/07 18:21:13;;;;;;;;;;;;;;;20.64;49.18;96135.00;10518847;28;2367;-45
2022/10/07 18:26:17;;;;;;;;;;;;;;;20.64;49.23;96135.00;10535267;28;1949;-45
2022/10/07 18:31:19;;;;;;;;;;;;;;;20.65;49.39;96141.84;10518106;28;2339;-45
2022/10/07 18:36:19;;;;;;;;;;;;;;;20.65;49.18;96135.81;10517651;28;2358;-48
2022/10/07 18:41:21;;;;;;;;;;;;;;;20.64;49.17;96140.28;10522251;28;2236;-45
2022/10/07 18:46:22;;;;;;;;;;;;;;;20.63;49.18;96133.41;10507946;28;1955;-45
2022/10/07 18:51:23;;;;;;;;;;;;;;;20.64;49.12;96126.31;10518970;28;1846;-48
2022/10/07 18:56:23;;;;;;;;;;;;;;;20.63;49.23;96127.38;10525885;28;1906;-44
2022/10/07 19:01:24;;;;;;;;;;;;;;;20.63;49.17;96122.88;10521862;28;2374;-44
2022/10/07 19:06:25;;;;;;;;;;;;;;;20.65;48.92;96126.03;10504865;28;1922;-45
2022/10/07 19:11:29;;;;;;;;;;;;;;;20.64;48.86;96129.75;10519601;28;1879;-44
2022/10/07 19:16:35;;;;;;;;;;;;;;;20.63;49.17;96124.75;10524428;28;2361;-44
2022/10/07 19:21:35;;;;;;;;;;;;;;;20.63;48.80;96130.78;10517901;28;2764;-44
2022/10/07 19:26:36;;;;;;;;;;;;;;;20.65;48.92;96126.03;10524781;28;2290;-44
2022/10/07 19:31:39;;;;;;;;;;;;;;;20.64;48.93;96124.47;10522593;28;2475;-45
2022/10/07 19:36:41;;;;;;;;;;;;;;;20.63;48.97;96122.88;10514790;28;2272;-46
2022/10/07 19:41:42;;;;;;;;;;;;;;;20.62;49.05;96121.31;10518642;28;2077;-44
2022/10/07 19:46:43;;;;;;;;;;;;;;;20.63;49.07;96130.78;10521954;28;2369;-45
2022/10/07 19:51:44;;;;;;;;;;;;;;;20.63;48.69;96135.28;10520675;28;1939;-45
2022/10/07 19:56:46;;;;;;;;;;;;;;;20.62;49.09;96123.94;10539483;28;2482;-47
2022/10/07 20:01:48;;;;;;;;;;;;;;;20.61;49.13;96127.63;10517785;28;2712;-44
2022/10/07 20:06:48;;;;;;;;;;;;;;;20.59;48.99;96116.56;10516252;28;2332;-44
2022/10/07 20:11:48;;;;;;;;;;;;;;;20.60;48.95;96118.16;10513554;28;2479;-46
2022/10/07 20:16:49;;;;;;;;;;;;;;;20.62;49.06;96115.25;10527983;28;2281;-44
2022/10/07 20:21:49;;;;;;;;;;;;;;;20.59;48.90;96119.19;10524841;28;2019;-47
2022/10/07 20:26:50;;;;;;;;;;;;;;;20.59;48.89;96116.56;10525850;28;2373;-47
2022/10/07 20:31:51;;;;;;;;;;;;;;;20.62;48.93;96108.16;10526673;28;2325;-48
2022/10/07 20:36:53;;;;;;;;;;;;;;;20.60;48.75;96115.53;10525789;28;2401;-46
2022/10/07 20:47:13;;;;;;;;;;;;;;;20.60;48.81;96102.34;10527999;28;2274;-48
2022/10/07 20:52:15;;;;;;;;;;;;;;;20.60;48.76;96098.94;10527739;28;2340;-45
2022/10/07 20:57:16;;;;;;;;;;;;;;;20.59;48.96;96095.50;10528982;28;2310;-45
2022/10/07 21:02:17;;;;;;;;;;;;;;;20.59;49.07;96094.69;10523615;28;2321;-45
2022/10/07 21:07:18;;;;;;;;;;;;;;;20.59;48.83;96087.59;10519967;28;2339;-46
2022/10/07 21:12:18;;;;;;;;;;;;;;;20.57;48.93;96084.44;10522484;28;2293;-46
2022/10/07 21:17:19;;;;;;;;;;;;;;;20.59;48.91;96089.44;10526104;28;2582;-47
2022/10/07 21:22:19;;;;;;;;;;;;;;;20.59;48.97;96077.06;10520813;28;2009;-45
2022/10/07 21:27:19;;;;;;;;;;;;;;;20.59;48.88;96073.63;10524380;28;2332;-48
2022/10/07 21:32:20;;;;;;;;;;;;;;;20.58;48.57;96072.84;10528873;28;2423;-43
2022/10/07 21:37:20;;;;;;;;;;;;;;;20.60;48.60;96068.13;10523924;28;2334;-45
2022/10/07 21:42:20;;;;;;;;;;;;;;;20.58;48.89;96072.84;10524922;28;1963;-46
2022/10/07 21:47:21;;;;;;;;;;;;;;;20.60;48.59;96069.94;10529312;28;1989;-45
2022/10/07 21:52:21;;;;;;;;;;;;;;;20.59;48.76;96077.06;10524167;28;2388;-47
2022/10/07 21:57:21;;;;;;;;;;;;;;;20.58;48.75;96072.06;10524146;28;2525;-48
2022/10/07 22:02:22;;;;;;;;;;;;;;;20.58;48.68;96072.84;10526531;28;1938;-46
2022/10/07 22:12:42;;;;;;;;;;;;;;;20.61;48.54;96061.00;10525291;28;2342;-50
2022/10/07 22:17:42;;;;;;;;;;;;;;;20.60;48.61;96062.84;10519882;28;2701;-46
2022/10/07 22:22:42;;;;;;;;;;;;;;;20.58;48.63;96051.78;10515452;28;2387;-45
2022/10/07 22:27:43;;;;;;;;;;;;;;;20.60;48.67;96051.50;10523234;28;2271;-45
2022/10/07 22:32:43;;;;;;;;;;;;;;;20.59;48.39;96052.56;10508918;28;1949;-48
2022/10/07 22:37:43;;;;;;;;;;;;;;;20.60;48.44;96054.16;10505593;28;2027;-46
2022/10/07 22:42:44;;;;;;;;;;;;;;;20.58;48.74;96048.34;10519729;28;1966;-45
2022/10/07 22:47:46;;;;;;;;;;;;;;;20.58;48.53;96048.34;10526470;28;2360;-47
2022/10/07 22:52:47;;;;;;;;;;;;;;;20.60;48.39;96041.78;10540036;28;2379;-49
2022/10/07 22:57:48;;;;;;;;;;;;;;;20.58;48.50;96043.88;10490240;28;2665;-47
2022/10/07 23:02:48;;;;;;;;;;;;;;;20.57;48.27;96042.28;10514047;28;2269;-45
2022/10/07 23:07:48;;;;;;;;;;;;;;;20.58;48.53;96036.00;10523161;28;2379;-52
2022/10/07 23:12:49;;;;;;;;;;;;;;;20.57;48.61;96031.75;10513796;28;2343;-48
2022/10/07 23:17:49;;;;;;;;;;;;;;;20.58;48.55;96022.03;10522228;28;2361;-46
2022/10/07 23:22:49;;;;;;;;;;;;;;;20.57;48.27;96026.50;10505281;28;2423;-51
2022/10/07 23:27:49;;;;;;;;;;;;;;;20.57;48.34;96029.13;10525687;28;1918;-47
2022/10/07 23:32:50;;;;;;;;;;;;;;;20.58;48.50;96028.09;10516445;28;2436;-48
2022/10/07 23:37:50;;;;;;;;;;;;;;;20.57;48.31;96023.88;10521830;28;2327;-46
2022/10/07 23:42:50;;;;;;;;;;;;;;;20.57;48.45;96021.22;10520652;28;2332;-45
2022/10/07 23:47:51;;;;;;;;;;;;;;;20.59;48.19;96020.94;10521163;28;2384;-47
2022/10/07 23:52:52;;;;;;;;;;;;;;;20.58;48.23;96016.75;10521722;28;2326;-49
2022/10/07 23:57:52;;;;;;;;;;;;;;;20.58;48.21;96014.13;10520261;28;2366;-46
